createdAt,value
2023-09-24T00:00:22.385Z,14.19
2023-09-24T00:02:50.585Z,14.22
2023-09-24T00:05:17.556Z,14.20
2023-09-24T00:07:44.197Z,14.19
2023-09-24T00:10:11.410Z,14.16
2023-09-24T00:12:39.386Z,14.09
2023-09-24T00:15:08.346Z,14.09
2023-09-24T00:17:35.390Z,14.08
2023-09-24T00:20:01.948Z,14.05
2023-09-24T00:22:28.524Z,14.03
2023-09-24T00:24:55.010Z,14.08
2023-09-24T00:27:21.567Z,14.10
2023-09-24T00:29:48.201Z,14.05
2023-09-24T00:32:14.875Z,14.07
2023-09-24T00:34:41.522Z,14.08
2023-09-24T00:37:08.076Z,14.10
2023-09-24T00:39:34.588Z,14.10
2023-09-24T00:42:01.246Z,14.07
2023-09-24T00:44:28.005Z,14.10
2023-09-24T00:46:57.114Z,14.15
2023-09-24T00:49:24.080Z,14.19
2023-09-24T00:51:50.712Z,14.18
2023-09-24T00:54:18.469Z,14.20
2023-09-24T00:56:45.357Z,14.14
2023-09-24T00:59:11.931Z,14.09
2023-09-24T01:01:39.435Z,14.03
2023-09-24T01:04:07.278Z,14.00
2023-09-24T01:06:34.733Z,14.01
2023-09-24T01:09:04.436Z,14.04
2023-09-24T01:11:32.838Z,13.97
2023-09-24T01:13:59.553Z,13.94
2023-09-24T01:16:26.160Z,13.96
2023-09-24T01:18:54.620Z,13.96
2023-09-24T01:21:22.013Z,13.89
2023-09-24T01:23:50.479Z,13.89
2023-09-24T01:26:19.230Z,13.94
2023-09-24T01:28:45.908Z,13.90
2023-09-24T01:31:13.228Z,13.93
2023-09-24T01:33:41.017Z,13.94
2023-09-24T01:36:11.522Z,13.98
2023-09-24T01:38:43.191Z,14.03
2023-09-24T01:41:13.346Z,14.02
2023-09-24T01:43:44.038Z,14.07
2023-09-24T01:46:18.147Z,14.09
2023-09-24T01:48:48.573Z,14.09
2023-09-24T01:51:15.096Z,14.00
2023-09-24T01:53:43.297Z,14.00
2023-09-24T01:56:10.706Z,14.04
2023-09-24T01:58:39.263Z,14.00
2023-09-24T02:01:08.130Z,14.02
2023-09-24T02:03:36.204Z,14.02
2023-09-24T02:06:03.939Z,14.09
2023-09-24T02:08:31.815Z,14.03
2023-09-24T02:10:58.707Z,14.03
2023-09-24T02:13:25.231Z,14.09
2023-09-24T02:15:51.785Z,14.07
2023-09-24T02:18:19.117Z,14.08
2023-09-24T02:20:49.630Z,14.09
2023-09-24T02:23:18.270Z,14.14
2023-09-24T02:25:46.315Z,14.12
2023-09-24T02:28:14.136Z,14.10
2023-09-24T02:30:41.730Z,14.11
2023-09-24T02:33:08.599Z,14.11
2023-09-24T02:35:35.697Z,14.19
2023-09-24T02:38:02.399Z,14.19
2023-09-24T02:40:29.346Z,14.22
2023-09-24T02:43:00.802Z,14.20
2023-09-24T02:45:28.903Z,14.24
2023-09-24T02:47:55.632Z,14.27
2023-09-24T02:50:25.152Z,14.28
2023-09-24T02:52:56.248Z,14.27
2023-09-24T02:55:24.199Z,14.24
2023-09-24T02:57:53.744Z,14.22
2023-09-24T03:00:44.138Z,14.22
2023-09-24T03:03:11.113Z,14.19
2023-09-24T03:05:38.078Z,14.26
2023-09-24T03:08:05.711Z,14.29
2023-09-24T03:10:34.056Z,14.32
2023-09-24T03:13:01.144Z,14.30
2023-09-24T03:15:28.124Z,14.33
2023-09-24T03:17:55.120Z,14.38
2023-09-24T03:20:21.788Z,14.39
2023-09-24T03:22:50.286Z,14.34
2023-09-24T03:25:17.822Z,14.31
2023-09-24T03:27:45.806Z,14.32
2023-09-24T03:30:15.274Z,14.35
2023-09-24T03:32:43.004Z,14.37
2023-09-24T03:35:11.475Z,14.34
2023-09-24T03:37:39.176Z,14.33
2023-09-24T03:40:07.226Z,14.34
2023-09-24T03:42:33.999Z,14.25
2023-09-24T03:45:01.472Z,14.25
2023-09-24T03:47:29.069Z,14.29
2023-09-24T03:49:55.596Z,14.33
2023-09-24T03:52:22.128Z,14.26
2023-09-24T03:54:48.600Z,14.25
2023-09-24T03:57:15.072Z,14.23
2023-09-24T03:59:41.836Z,14.22
2023-09-24T04:02:09.130Z,14.22
2023-09-24T04:04:38.083Z,14.23
2023-09-24T04:07:06.393Z,14.22
2023-09-24T04:09:34.202Z,14.24
2023-09-24T04:12:01.492Z,14.30
2023-09-24T04:14:29.081Z,14.26
2023-09-24T04:16:58.751Z,14.25
2023-09-24T04:19:26.540Z,14.25
2023-09-24T04:21:53.360Z,14.25
2023-09-24T04:24:20.274Z,14.27
2023-09-24T04:26:47.834Z,14.30
2023-09-24T04:29:18.359Z,14.28
2023-09-24T04:31:44.893Z,14.29
2023-09-24T04:34:13.773Z,14.29
2023-09-24T04:36:41.612Z,14.28
2023-09-24T04:39:12.120Z,14.31
2023-09-24T04:41:44.453Z,14.28
2023-09-24T04:44:11.153Z,14.31
2023-09-24T04:46:37.989Z,14.29
2023-09-24T04:49:06.196Z,14.26
2023-09-24T04:51:35.769Z,14.26
2023-09-24T04:54:03.639Z,14.30
2023-09-24T04:56:30.852Z,14.22
2023-09-24T04:58:57.959Z,14.22
2023-09-24T05:01:24.578Z,14.25
2023-09-24T05:03:52.402Z,14.23
2023-09-24T05:06:19.833Z,14.20
2023-09-24T05:08:47.735Z,14.25
2023-09-24T05:11:15.070Z,14.25
2023-09-24T05:13:41.937Z,14.21
2023-09-24T05:16:09.855Z,14.23
2023-09-24T05:18:37.483Z,14.23
2023-09-24T05:21:04.688Z,14.23
2023-09-24T05:23:31.427Z,14.25
2023-09-24T05:25:58.063Z,14.20
2023-09-24T05:28:24.761Z,14.24
2023-09-24T05:30:55.146Z,14.25
2023-09-24T05:33:22.796Z,14.23
2023-09-24T05:35:53.553Z,14.23
2023-09-24T05:38:20.853Z,14.25
2023-09-24T05:40:47.659Z,14.28
2023-09-24T05:43:14.661Z,14.32
2023-09-24T05:45:48.380Z,14.32
2023-09-24T05:48:19.093Z,14.34
2023-09-24T05:50:46.545Z,14.36
2023-09-24T05:53:14.100Z,14.36
2023-09-24T05:55:40.719Z,14.34
2023-09-24T05:58:08.360Z,14.39
2023-09-24T06:00:39.070Z,14.38
2023-09-24T06:03:05.875Z,14.38
2023-09-24T06:05:32.597Z,14.39
2023-09-24T06:07:59.142Z,14.40
2023-09-24T06:10:25.779Z,14.43
2023-09-24T06:12:54.294Z,14.43
2023-09-24T06:15:20.986Z,14.45
2023-09-24T06:17:48.341Z,14.48
2023-09-24T06:20:17.095Z,14.50
2023-09-24T06:22:47.041Z,14.52
2023-09-24T06:25:13.945Z,14.50
2023-09-24T06:27:41.642Z,14.50
2023-09-24T06:30:11.877Z,14.49
2023-09-24T06:32:38.858Z,14.47
2023-09-24T06:35:06.142Z,14.49
2023-09-24T06:37:32.776Z,14.47
2023-09-24T06:39:59.759Z,14.46
2023-09-24T06:42:26.333Z,14.44
2023-09-24T06:44:53.376Z,14.42
2023-09-24T06:47:19.950Z,14.34
2023-09-24T06:49:52.889Z,14.33
2023-09-24T06:52:19.415Z,14.36
2023-09-24T06:54:46.214Z,14.40
2023-09-24T06:57:13.180Z,14.43
2023-09-24T06:59:40.029Z,14.47
2023-09-24T07:02:07.558Z,14.49
2023-09-24T07:04:34.860Z,14.44
2023-09-24T07:07:02.914Z,14.42
2023-09-24T07:09:30.440Z,14.42
2023-09-24T07:11:57.098Z,14.39
2023-09-24T07:14:24.166Z,14.48
2023-09-24T07:16:50.786Z,14.58
2023-09-24T07:19:17.956Z,14.68
2023-09-24T07:21:44.580Z,14.72
2023-09-24T07:24:11.187Z,14.73
2023-09-24T07:26:37.861Z,14.78
2023-09-24T07:29:04.842Z,14.80
2023-09-24T07:31:32.272Z,14.81
2023-09-24T07:34:01.976Z,14.83
2023-09-24T07:36:34.625Z,14.90
2023-09-24T07:39:08.876Z,14.93
2023-09-24T07:41:35.613Z,14.93
2023-09-24T07:44:02.323Z,15.00
2023-09-24T07:46:28.928Z,15.06
2023-09-24T07:48:55.661Z,15.14
2023-09-24T07:51:23.451Z,15.24
2023-09-24T07:53:51.772Z,15.27
2023-09-24T07:56:19.168Z,15.29
2023-09-24T07:58:45.718Z,15.33
2023-09-24T08:01:15.124Z,15.36
2023-09-24T08:03:45.908Z,15.40
2023-09-24T08:06:13.512Z,15.47
2023-09-24T08:08:49.851Z,15.37
2023-09-24T08:11:18.639Z,15.23
2023-09-24T08:13:45.330Z,15.09
2023-09-24T08:16:12.253Z,15.06
2023-09-24T08:18:39.202Z,15.07
2023-09-24T08:21:05.981Z,15.20
2023-09-24T08:23:32.913Z,15.41
2023-09-24T08:26:00.627Z,15.56
2023-09-24T08:28:27.250Z,15.75
2023-09-24T08:30:54.404Z,15.82
2023-09-24T08:33:21.090Z,16.03
2023-09-24T08:35:48.356Z,16.21
2023-09-24T08:38:16.093Z,16.34
2023-09-24T08:40:42.611Z,16.38
2023-09-24T08:43:16.886Z,16.76
2023-09-24T08:45:43.473Z,16.86
2023-09-24T08:48:11.956Z,16.73
2023-09-24T08:50:41.035Z,16.71
2023-09-24T08:53:12.504Z,16.92
2023-09-24T08:55:42.560Z,17.22
2023-09-24T08:58:09.155Z,17.43
2023-09-24T09:00:35.900Z,17.40
2023-09-24T09:03:06.392Z,17.22
2023-09-24T09:05:37.749Z,17.47
2023-09-24T09:08:05.051Z,17.79
2023-09-24T09:10:36.341Z,17.85
2023-09-24T09:13:12.527Z,17.95
2023-09-24T09:15:40.269Z,18.03
2023-09-24T09:18:08.083Z,18.09
2023-09-24T09:20:46.240Z,17.95
2023-09-24T09:23:16.991Z,17.69
2023-09-24T09:25:54.179Z,17.77
2023-09-24T09:28:22.441Z,18.02
2023-09-24T09:31:09.144Z,18.22
2023-09-24T09:33:43.494Z,18.46
2023-09-24T09:36:27.318Z,18.30
2023-09-24T09:38:55.642Z,18.41
2023-09-24T09:41:24.847Z,18.05
2023-09-24T09:43:53.564Z,18.06
2023-09-24T09:46:24.840Z,18.32
2023-09-24T09:48:56.679Z,18.24
2023-09-24T09:51:24.805Z,18.25
2023-09-24T09:53:53.934Z,18.16
2023-09-24T09:56:24.268Z,18.18
2023-09-24T09:58:52.791Z,18.07
2023-09-24T10:01:22.696Z,18.08
2023-09-24T10:03:54.202Z,18.15
2023-09-24T10:06:21.564Z,18.17
2023-09-24T10:08:51.637Z,18.50
2023-09-24T10:11:33.727Z,18.58
2023-09-24T10:14:06.951Z,18.45
2023-09-24T10:16:39.363Z,18.47
2023-09-24T10:19:14.568Z,18.03
2023-09-24T10:21:44.181Z,18.25
2023-09-24T10:24:13.636Z,18.30
2023-09-24T10:27:08.426Z,18.64
2023-09-24T10:29:46.108Z,19.04
2023-09-24T10:32:13.194Z,18.96
2023-09-24T10:34:55.270Z,18.89
2023-09-24T10:37:39.676Z,18.84
2023-09-24T10:40:11.471Z,18.59
2023-09-24T10:42:43.271Z,18.66
2023-09-24T10:45:10.921Z,18.88
2023-09-24T10:47:47.671Z,18.67
2023-09-24T10:50:17.382Z,18.51
2023-09-24T10:53:01.030Z,18.10
2023-09-24T10:55:30.794Z,17.68
2023-09-24T10:58:10.674Z,17.58
2023-09-24T11:00:37.369Z,17.55
2023-09-24T11:03:08.842Z,17.39
2023-09-24T11:05:42.838Z,17.21
2023-09-24T11:08:10.988Z,17.33
2023-09-24T11:10:38.326Z,17.43
2023-09-24T11:13:06.140Z,17.27
2023-09-24T11:15:33.632Z,17.28
2023-09-24T11:18:01.145Z,17.81
2023-09-24T11:20:32.111Z,18.16
2023-09-24T11:23:10.119Z,18.24
2023-09-24T11:25:37.348Z,18.04
2023-09-24T11:28:05.109Z,17.94
2023-09-24T11:30:44.320Z,18.30
2023-09-24T11:33:17.464Z,18.61
2023-09-24T11:35:45.847Z,18.75
2023-09-24T11:38:12.654Z,18.22
2023-09-24T11:40:41.198Z,18.37
2023-09-24T11:43:13.224Z,18.59
2023-09-24T11:45:49.363Z,18.78
2023-09-24T11:48:25.842Z,18.89
2023-09-24T11:50:54.685Z,19.01
2023-09-24T11:53:24.723Z,18.90
2023-09-24T11:55:54.560Z,19.06
2023-09-24T11:58:23.245Z,18.87
2023-09-24T12:00:49.982Z,18.67
2023-09-24T12:03:16.648Z,18.85
2023-09-24T12:05:43.342Z,19.08
2023-09-24T12:08:10.098Z,18.64
2023-09-24T12:10:41.414Z,18.37
2023-09-24T12:13:20.178Z,18.55
2023-09-24T12:15:47.076Z,18.42
2023-09-24T12:18:13.794Z,18.16
2023-09-24T12:20:42.301Z,18.19
2023-09-24T12:23:14.272Z,18.58
2023-09-24T12:25:43.501Z,19.15
2023-09-24T12:28:11.774Z,19.30
2023-09-24T12:30:39.531Z,19.22
2023-09-24T12:33:09.651Z,19.40
2023-09-24T12:35:44.398Z,19.34
2023-09-24T12:38:11.561Z,19.16
2023-09-24T12:40:38.625Z,19.37
2023-09-24T12:43:05.427Z,19.42
2023-09-24T12:45:32.401Z,19.35
2023-09-24T12:47:59.053Z,19.29
2023-09-24T12:50:27.015Z,19.33
2023-09-24T12:52:53.747Z,19.27
2023-09-24T12:55:20.795Z,19.37
2023-09-24T12:57:47.413Z,19.50
2023-09-24T13:00:16.159Z,19.38
2023-09-24T13:02:48.643Z,19.34
2023-09-24T13:05:17.400Z,19.18
2023-09-24T13:07:45.869Z,19.11
2023-09-24T13:10:15.646Z,18.88
2023-09-24T13:12:43.292Z,18.54
2023-09-24T13:15:10.732Z,18.29
2023-09-24T13:17:38.222Z,18.13
2023-09-24T13:20:05.763Z,18.09
2023-09-24T13:22:33.786Z,18.09
2023-09-24T13:25:00.405Z,18.03
2023-09-24T13:27:26.997Z,18.00
2023-09-24T13:29:53.849Z,17.87
2023-09-24T13:32:22.241Z,17.87
2023-09-24T13:34:49.408Z,18.10
2023-09-24T13:37:19.098Z,18.25
2023-09-24T13:39:45.608Z,18.30
2023-09-24T13:42:12.260Z,18.13
2023-09-24T13:44:38.892Z,18.10
2023-09-24T13:47:05.586Z,18.17
2023-09-24T13:49:38.641Z,18.21
2023-09-24T13:52:05.338Z,18.24
2023-09-24T13:54:33.253Z,18.13
2023-09-24T13:57:00.788Z,18.12
2023-09-24T13:59:27.540Z,18.07
2023-09-24T14:01:54.151Z,17.92
2023-09-24T14:04:20.910Z,17.78
2023-09-24T14:06:48.778Z,17.66
2023-09-24T14:09:34.831Z,17.62
2023-09-24T14:12:22.750Z,17.77
2023-09-24T14:14:55.850Z,17.68
2023-09-24T14:17:23.086Z,17.58
2023-09-24T14:19:50.044Z,17.66
2023-09-24T14:22:16.631Z,17.87
2023-09-24T14:24:43.658Z,18.03
2023-09-24T14:27:10.412Z,18.16
2023-09-24T14:29:37.364Z,18.13
2023-09-24T14:32:05.275Z,17.95
2023-09-24T14:34:31.868Z,17.87
2023-09-24T14:36:58.410Z,17.85
2023-09-24T14:39:25.131Z,17.97
2023-09-24T14:41:51.759Z,18.01
2023-09-24T14:44:18.827Z,18.01
2023-09-24T14:46:46.166Z,18.00
2023-09-24T14:49:13.443Z,17.90
2023-09-24T14:51:40.325Z,17.90
2023-09-24T14:54:07.049Z,17.87
2023-09-24T14:56:33.873Z,17.87
2023-09-24T14:59:00.412Z,17.85
2023-09-24T15:01:28.209Z,17.87
2023-09-24T15:03:54.855Z,17.74
2023-09-24T15:06:21.500Z,17.70
2023-09-24T15:08:48.097Z,17.66
2023-09-24T15:11:14.642Z,17.52
2023-09-24T15:13:43.019Z,17.51
2023-09-24T15:16:10.336Z,17.38
2023-09-24T15:18:36.994Z,17.38
2023-09-24T15:21:11.203Z,17.42
2023-09-24T15:23:38.533Z,17.42
2023-09-24T15:26:05.612Z,17.42
2023-09-24T15:28:32.975Z,17.40
2023-09-24T15:30:59.508Z,17.37
2023-09-24T15:33:26.112Z,17.29
2023-09-24T15:35:52.790Z,17.23
2023-09-24T15:38:19.311Z,17.20
2023-09-24T15:40:46.290Z,17.21
2023-09-24T15:43:12.817Z,17.19
2023-09-24T15:45:39.416Z,17.15
2023-09-24T15:48:06.658Z,17.12
2023-09-24T15:50:33.819Z,17.12
2023-09-24T15:53:00.729Z,17.08
2023-09-24T15:55:27.365Z,17.07
2023-09-24T15:57:53.942Z,17.04
2023-09-24T16:00:21.156Z,17.01
2023-09-24T16:02:47.907Z,17.00
2023-09-24T16:05:14.970Z,16.95
2023-09-24T16:07:41.880Z,16.92
2023-09-24T16:10:08.901Z,16.90
2023-09-24T16:12:35.843Z,16.93
2023-09-24T16:15:02.605Z,16.94
2023-09-24T16:17:30.648Z,16.87
2023-09-24T16:19:57.723Z,16.80
2023-09-24T16:22:24.511Z,16.77
2023-09-24T16:24:54.924Z,16.73
2023-09-24T16:27:23.031Z,16.68
2023-09-24T16:29:51.708Z,16.65
2023-09-24T16:32:19.498Z,16.62
2023-09-24T16:34:49.509Z,16.61
2023-09-24T16:37:16.197Z,16.58
2023-09-24T16:39:42.837Z,16.55
2023-09-24T16:42:09.377Z,16.57
2023-09-24T16:44:35.936Z,16.58
2023-09-24T16:47:02.628Z,16.56
2023-09-24T16:49:31.188Z,16.47
2023-09-24T16:51:57.887Z,16.44
2023-09-24T16:54:26.967Z,16.39
2023-09-24T16:56:54.538Z,16.35
2023-09-24T16:59:22.241Z,16.32
2023-09-24T17:01:49.632Z,16.31
2023-09-24T17:04:16.482Z,16.30
2023-09-24T17:06:43.187Z,16.23
2023-09-24T17:09:11.203Z,16.23
2023-09-24T17:11:37.976Z,16.22
2023-09-24T17:14:05.383Z,16.25
2023-09-24T17:16:32.043Z,16.29
2023-09-24T17:18:58.737Z,16.29
2023-09-24T17:21:25.506Z,16.18
2023-09-24T17:23:52.596Z,16.10
2023-09-24T17:26:21.433Z,16.11
2023-09-24T17:28:48.849Z,16.02
2023-09-24T17:31:15.631Z,16.00
2023-09-24T17:33:43.473Z,16.02
2023-09-24T17:36:12.891Z,16.03
2023-09-24T17:38:39.811Z,16.00
2023-09-24T17:41:06.500Z,15.99
2023-09-24T17:43:33.013Z,15.94
2023-09-24T17:46:01.558Z,15.87
2023-09-24T17:48:28.424Z,15.77
2023-09-24T17:51:05.890Z,15.73
2023-09-24T17:53:33.758Z,15.70
2023-09-24T17:56:01.866Z,15.70
2023-09-24T17:58:28.999Z,15.66
2023-09-24T18:01:12.788Z,15.63
2023-09-24T18:03:43.905Z,15.59
2023-09-24T18:06:11.723Z,15.56
2023-09-24T18:08:39.257Z,15.55
2023-09-24T18:11:05.925Z,15.49
2023-09-24T18:13:33.033Z,15.44
2023-09-24T18:16:00.992Z,15.45
2023-09-24T18:18:29.525Z,15.45
2023-09-24T18:21:01.467Z,15.44
2023-09-24T18:23:33.909Z,15.38
2023-09-24T18:26:01.066Z,15.35
2023-09-24T18:28:27.638Z,15.32
2023-09-24T18:30:54.430Z,15.32
2023-09-24T18:33:23.860Z,15.26
2023-09-24T18:35:54.975Z,15.25
2023-09-24T18:38:21.940Z,15.27
2023-09-24T18:40:48.855Z,15.29
2023-09-24T18:43:15.532Z,15.26
2023-09-24T18:45:42.581Z,15.26
2023-09-24T18:48:09.197Z,15.27
2023-09-24T18:50:36.768Z,15.26
2023-09-24T18:53:04.002Z,15.28
2023-09-24T18:55:30.643Z,15.30
2023-09-24T18:58:00.623Z,15.19
2023-09-24T19:00:27.173Z,15.13
2023-09-24T19:02:53.916Z,15.15
2023-09-24T19:05:23.831Z,15.17
2023-09-24T19:07:50.588Z,15.17
2023-09-24T19:10:18.378Z,15.15
2023-09-24T19:12:48.077Z,15.18
2023-09-24T19:15:16.488Z,15.18
2023-09-24T19:17:43.488Z,15.18
2023-09-24T19:20:11.459Z,15.18
2023-09-24T19:22:38.047Z,15.15
2023-09-24T19:25:04.838Z,15.13
2023-09-24T19:27:33.499Z,15.13
2023-09-24T19:30:00.225Z,15.12
2023-09-24T19:32:27.875Z,15.14
2023-09-24T19:34:54.872Z,15.18
2023-09-24T19:37:25.028Z,15.16
2023-09-24T19:39:51.660Z,15.13
2023-09-24T19:42:24.515Z,15.12
2023-09-24T19:44:51.185Z,15.10
2023-09-24T19:47:20.196Z,15.06
2023-09-24T19:49:47.048Z,15.05
2023-09-24T19:52:14.657Z,15.05
2023-09-24T19:54:42.686Z,15.08
2023-09-24T19:57:09.322Z,15.09
2023-09-24T19:59:35.837Z,15.05
2023-09-24T20:02:02.394Z,15.05
2023-09-24T20:04:29.835Z,15.06
2023-09-24T20:06:59.101Z,14.99
2023-09-24T20:09:27.481Z,14.85
2023-09-24T20:11:54.181Z,14.80
2023-09-24T20:14:23.954Z,14.73
2023-09-24T20:16:53.885Z,14.68
2023-09-24T20:19:20.740Z,14.60
2023-09-24T20:21:47.230Z,14.56
2023-09-24T20:24:15.496Z,14.54
2023-09-24T20:26:46.290Z,14.54
2023-09-24T20:29:13.175Z,14.52
2023-09-24T20:31:41.316Z,14.49
2023-09-24T20:34:08.897Z,14.45
2023-09-24T20:36:36.249Z,14.44
2023-09-24T20:39:07.210Z,14.44
2023-09-24T20:41:35.765Z,14.42
2023-09-24T20:44:02.550Z,14.42
2023-09-24T20:46:42.001Z,14.38
2023-09-24T20:49:10.254Z,14.32
2023-09-24T20:51:37.420Z,14.30
2023-09-24T20:54:04.377Z,14.26
2023-09-24T20:56:31.078Z,14.26
2023-09-24T20:59:01.977Z,14.29
2023-09-24T21:01:28.568Z,14.26
2023-09-24T21:03:55.299Z,14.24
2023-09-24T21:06:21.876Z,14.20
2023-09-24T21:08:48.803Z,14.23
2023-09-24T21:11:15.968Z,14.25
2023-09-24T21:13:44.269Z,14.28
2023-09-24T21:16:10.850Z,14.24
2023-09-24T21:18:37.835Z,14.23
2023-09-24T21:21:04.502Z,14.19
2023-09-24T21:23:31.160Z,14.11
2023-09-24T21:26:05.392Z,14.11
2023-09-24T21:28:33.016Z,14.18
2023-09-24T21:31:07.392Z,14.16
2023-09-24T21:33:35.113Z,14.04
2023-09-24T21:36:03.364Z,13.94
2023-09-24T21:38:30.030Z,13.81
2023-09-24T21:40:57.227Z,13.71
2023-09-24T21:43:30.659Z,13.70
2023-09-24T21:46:01.889Z,13.73
2023-09-24T21:48:29.483Z,13.83
2023-09-24T21:50:56.359Z,13.80
2023-09-24T21:53:23.012Z,13.82
2023-09-24T21:55:50.273Z,13.88
2023-09-24T21:58:18.003Z,13.88
2023-09-24T22:00:45.046Z,13.83
2023-09-24T22:03:12.335Z,13.81
2023-09-24T22:05:43.452Z,13.83
2023-09-24T22:08:11.091Z,13.85
2023-09-24T22:10:38.286Z,13.94
2023-09-24T22:13:04.945Z,14.10
2023-09-24T22:15:31.534Z,14.23
2023-09-24T22:17:58.161Z,14.25
2023-09-24T22:20:24.827Z,14.15
2023-09-24T22:22:51.745Z,14.08
2023-09-24T22:25:18.332Z,13.84
2023-09-24T22:27:45.418Z,13.77
2023-09-24T22:30:13.993Z,13.84
2023-09-24T22:32:41.633Z,13.87
2023-09-24T22:35:11.751Z,13.96
2023-09-24T22:37:39.557Z,14.03
2023-09-24T22:40:08.583Z,14.00
2023-09-24T22:42:36.206Z,14.00
2023-09-24T22:45:07.642Z,14.03
2023-09-24T22:47:34.655Z,14.10
2023-09-24T22:50:01.338Z,14.19
2023-09-24T22:52:27.903Z,14.30
2023-09-24T22:54:54.412Z,14.32
2023-09-24T22:57:21.507Z,14.31
2023-09-24T22:59:48.154Z,14.26
2023-09-24T23:02:14.632Z,14.19
2023-09-24T23:04:41.722Z,14.26
2023-09-24T23:07:09.042Z,14.29
2023-09-24T23:09:36.842Z,14.32
2023-09-24T23:12:04.303Z,14.35
2023-09-24T23:14:30.889Z,14.38
2023-09-24T23:16:57.428Z,14.40
2023-09-24T23:19:26.864Z,14.42
2023-09-24T23:21:53.544Z,14.46
2023-09-24T23:24:21.174Z,14.46
2023-09-24T23:26:47.706Z,14.50
2023-09-24T23:29:14.904Z,14.53
2023-09-24T23:31:41.467Z,14.54
2023-09-24T23:34:10.171Z,14.58
2023-09-24T23:36:37.836Z,14.62
2023-09-24T23:39:13.352Z,14.63
2023-09-24T23:41:40.107Z,14.65
2023-09-24T23:44:08.304Z,14.67
2023-09-24T23:46:35.201Z,14.63
2023-09-24T23:49:02.717Z,14.60
2023-09-24T23:51:29.311Z,14.61
2023-09-24T23:53:55.904Z,14.63
2023-09-24T23:56:22.682Z,14.62
2023-09-24T23:58:51.031Z,14.66
